createdAt,value
2022-11-29T00:02:55.413Z,95882.78
2022-11-29T00:07:58.234Z,95868.75
2022-11-29T00:13:00.911Z,95884.50
2022-11-29T00:18:05.589Z,95864.44
2022-11-29T00:23:08.261Z,95859.28
2022-11-29T00:28:10.980Z,95833.06
2022-11-29T00:33:15.032Z,95830.44
2022-11-29T00:38:17.937Z,95814.63
2022-11-29T00:43:20.614Z,95799.06
2022-11-29T00:48:24.742Z,95804.34
2022-11-29T00:53:27.536Z,95776.38
2022-11-29T00:58:30.515Z,95869.81
2022-11-29T01:03:35.324Z,95834.03
2022-11-29T01:08:38.466Z,95786.84
2022-11-29T01:13:41.590Z,95794.72
2022-11-29T01:18:45.714Z,95764.19
2022-11-29T01:23:49.640Z,95748.44
2022-11-29T01:28:53.484Z,95752.84
2022-11-29T01:33:59.513Z,95718.75
2022-11-29T01:39:03.219Z,95724.81
2022-11-29T01:44:08.063Z,95734.50
2022-11-29T01:49:14.573Z,95725.78
2022-11-29T01:54:17.589Z,95708.38
2022-11-29T01:59:22.141Z,95689.13
2022-11-29T02:04:26.274Z,95697.28
2022-11-29T02:09:29.262Z,95683.16
2022-11-29T02:14:45.002Z,95670.06
2022-11-29T02:20:13.848Z,95691.28
2022-11-29T02:25:28.684Z,95697.44
2022-11-29T02:30:56.927Z,95766.44
2022-11-29T02:36:26.061Z,95778.44
2022-11-29T02:41:40.577Z,95763.59
2022-11-29T02:47:03.738Z,95754.06
2022-11-29T02:52:13.199Z,95713.75
2022-11-29T02:57:20.734Z,95702.56
2022-11-29T03:02:28.420Z,95734.91
2022-11-29T03:07:41.916Z,95789.06
2022-11-29T03:12:46.705Z,95773.22
2022-11-29T03:18:01.795Z,95726.00
2022-11-29T03:23:16.543Z,95727.03
2022-11-29T03:28:21.243Z,96045.47
2022-11-29T03:33:29.292Z,95955.66
2022-11-29T03:38:40.741Z,95830.06
2022-11-29T03:43:48.392Z,95839.72
2022-11-29T03:48:53.799Z,95838.91
2022-11-29T03:54:02.736Z,96502.44
2022-11-29T03:59:13.293Z,96416.88
2022-11-29T04:04:48.367Z,96099.59
2022-11-29T04:10:09.948Z,95957.38
2022-11-29T04:15:40.484Z,95925.19
2022-11-29T04:21:07.625Z,95955.66
2022-11-29T04:26:34.645Z,93589.97
2022-11-29T04:31:46.416Z,93486.00
2022-11-29T04:37:08.503Z,93458.78
2022-11-29T04:42:28.740Z,93425.72
2022-11-29T04:47:50.852Z,93419.91
2022-11-29T04:53:10.186Z,93717.78
2022-11-29T04:58:20.459Z,93439.91
2022-11-29T05:03:33.009Z,93378.28
2022-11-29T05:08:41.887Z,94270.97
2022-11-29T05:13:52.240Z,94377.31
2022-11-29T05:19:04.594Z,94642.13
2022-11-29T05:24:15.949Z,94715.25
2022-11-29T05:29:25.646Z,94512.91
2022-11-29T05:34:42.733Z,94468.59
2022-11-29T05:39:56.219Z,94323.09
2022-11-29T05:45:04.081Z,94207.78
2022-11-29T05:50:11.352Z,94139.66
2022-11-29T05:55:23.413Z,93642.94
2022-11-29T06:00:28.635Z,93751.81
2022-11-29T06:05:36.281Z,93725.38
2022-11-29T06:10:41.508Z,93085.97
2022-11-29T06:16:20.680Z,92873.72
2022-11-29T06:21:28.642Z,92844.59
2022-11-29T06:26:44.816Z,92887.53
2022-11-29T06:31:50.275Z,92960.63
2022-11-29T06:36:56.162Z,93013.09
2022-11-29T06:41:58.925Z,93026.06
2022-11-29T06:47:07.103Z,93015.81
2022-11-29T06:52:20.859Z,93062.56
2022-11-29T06:57:25.832Z,93023.72
2022-11-29T07:02:45.693Z,93103.91
2022-11-29T07:07:50.402Z,93017.66
2022-11-29T07:12:53.711Z,93030.81
2022-11-29T07:18:06.675Z,92986.75
2022-11-29T07:23:15.569Z,92993.56
2022-11-29T07:28:27.137Z,92956.94
2022-11-29T07:33:34.339Z,92965.91
2022-11-29T07:38:50.485Z,92951.06
2022-11-29T07:43:57.620Z,92923.06
2022-11-29T07:49:00.342Z,92931.75
2022-11-29T07:54:04.629Z,92850.56
2022-11-29T07:59:10.921Z,91933.97
2022-11-29T08:04:13.909Z,91186.56
2022-11-29T08:09:18.121Z,90585.47
2022-11-29T08:14:20.978Z,90125.66
2022-11-29T08:19:23.763Z,90302.78
2022-11-29T08:24:27.887Z,90509.72
2022-11-29T08:29:30.584Z,90712.53
2022-11-29T08:34:33.326Z,91020.44
2022-11-29T08:39:37.296Z,91257.75
2022-11-29T08:44:40.037Z,91433.66
2022-11-29T08:49:56.684Z,91572.84
2022-11-29T08:55:03.310Z,91785.81
2022-11-29T09:00:07.778Z,91948.00
2022-11-29T09:05:11.825Z,92098.63
2022-11-29T09:10:16.076Z,92230.97
2022-11-29T09:15:19.803Z,92358.09
2022-11-29T09:20:22.878Z,92487.19
2022-11-29T09:25:27.061Z,92595.63
2022-11-29T09:30:31.438Z,92669.28
2022-11-29T09:35:34.711Z,92730.59
2022-11-29T09:40:41.839Z,92898.13
2022-11-29T09:46:07.207Z,92961.34
2022-11-29T09:51:19.007Z,92962.44
2022-11-29T09:56:29.484Z,92995.31
2022-11-29T10:01:33.778Z,93005.88
2022-11-29T10:06:39.990Z,92932.38
2022-11-29T10:11:52.984Z,92998.38
2022-11-29T10:17:03.968Z,93026.31
2022-11-29T10:22:18.316Z,92985.06
2022-11-29T10:27:24.933Z,92938.16
2022-11-29T10:32:32.029Z,92971.84
2022-11-29T10:37:35.216Z,92958.75
2022-11-29T10:42:53.102Z,92950.78
2022-11-29T10:47:57.969Z,92882.63
2022-11-29T10:53:04.981Z,92779.09
2022-11-29T10:58:22.071Z,92658.13
2022-11-29T11:03:33.773Z,92499.19
2022-11-29T11:08:43.357Z,92382.44
2022-11-29T11:13:58.845Z,92348.28
2022-11-29T11:19:29.882Z,92195.25
2022-11-29T11:24:34.758Z,92122.97
2022-11-29T11:29:39.781Z,92461.50
2022-11-29T11:34:51.919Z,91996.22
2022-11-29T11:39:57.996Z,91948.13
2022-11-29T11:45:01.359Z,91824.25
2022-11-29T11:50:14.214Z,91730.13
2022-11-29T11:55:28.731Z,91537.69
2022-11-29T12:06:27.226Z,91132.38
2022-11-29T12:11:35.252Z,90967.28
2022-11-29T12:16:40.208Z,90846.63
2022-11-29T12:21:46.214Z,90742.22
2022-11-29T12:26:56.863Z,90601.03
2022-11-29T12:32:08.818Z,90530.19
2022-11-29T12:37:17.669Z,90518.25
2022-11-29T12:42:27.767Z,90477.84
2022-11-29T12:47:40.335Z,90458.22
2022-11-29T12:52:49.116Z,90372.75
2022-11-29T12:57:57.517Z,90335.56
2022-11-29T13:03:08.029Z,90294.53
2022-11-29T13:08:42.995Z,90273.09
2022-11-29T13:13:48.030Z,90270.28
2022-11-29T13:18:54.527Z,90276.72
2022-11-29T13:24:10.658Z,90208.25
2022-11-29T13:29:15.907Z,90246.13
2022-11-29T13:34:23.271Z,90188.13
2022-11-29T13:39:36.337Z,90200.13
2022-11-29T13:44:45.340Z,90210.41
2022-11-29T13:49:57.170Z,90311.44
2022-11-29T13:55:29.092Z,90385.22
2022-11-29T14:00:34.449Z,90473.59
2022-11-29T14:05:39.263Z,90567.16
2022-11-29T14:10:48.988Z,90619.84
2022-11-29T14:15:56.271Z,90678.25
2022-11-29T14:20:59.359Z,90759.25
2022-11-29T14:26:36.730Z,90868.38
2022-11-29T14:31:53.224Z,90992.69
2022-11-29T14:36:56.225Z,91078.25
2022-11-29T14:42:17.027Z,91198.78
2022-11-29T14:47:26.812Z,91340.03
2022-11-29T14:52:31.626Z,91427.94
2022-11-29T14:58:08.966Z,91539.00
2022-11-29T15:03:13.806Z,91643.97
2022-11-29T15:08:19.038Z,91744.41
2022-11-29T15:13:27.062Z,91875.28
2022-11-29T15:18:54.420Z,91940.63
2022-11-29T15:23:59.734Z,91950.97
2022-11-29T15:29:19.056Z,91987.97
2022-11-29T15:34:23.443Z,92041.53
2022-11-29T15:39:28.771Z,92078.69
2022-11-29T15:44:35.484Z,92127.81
2022-11-29T15:49:38.154Z,92171.50
2022-11-29T15:54:43.808Z,92163.28
2022-11-29T15:59:49.932Z,92191.34
2022-11-29T16:04:54.954Z,92211.81
2022-11-29T16:10:00.402Z,92269.41
2022-11-29T16:15:05.053Z,92292.13
2022-11-29T16:20:24.237Z,92359.47
2022-11-29T16:25:27.445Z,92449.00
2022-11-29T16:30:32.298Z,92501.75
2022-11-29T16:35:36.226Z,92586.88
2022-11-29T16:40:38.941Z,92608.66
2022-11-29T16:45:43.726Z,92618.59
2022-11-29T16:50:46.539Z,92623.81
2022-11-29T16:55:49.238Z,92626.44
2022-11-29T17:00:53.412Z,92715.44
2022-11-29T17:05:56.207Z,92746.41
2022-11-29T17:10:58.905Z,92686.03
2022-11-29T17:16:02.975Z,92680.56
2022-11-29T17:21:05.822Z,92708.72
2022-11-29T17:26:08.608Z,92722.56
2022-11-29T17:31:13.485Z,92774.06
2022-11-29T17:36:19.881Z,92774.78
2022-11-29T17:41:23.960Z,92830.28
2022-11-29T17:46:29.367Z,92788.19
2022-11-29T17:56:55.227Z,92754.06
2022-11-29T18:01:59.394Z,92726.13
2022-11-29T18:07:02.148Z,92718.47
2022-11-29T18:12:04.932Z,92673.03
2022-11-29T18:17:09.101Z,92695.84
2022-11-29T18:22:11.828Z,92704.44
2022-11-29T18:27:14.647Z,92734.81
2022-11-29T18:32:18.690Z,92768.72
2022-11-29T18:37:40.265Z,92807.03
2022-11-29T18:42:44.320Z,92847.25
2022-11-29T18:47:48.398Z,92889.31
2022-11-29T18:52:51.579Z,93085.63
2022-11-29T18:57:54.974Z,93298.69
2022-11-29T19:02:59.080Z,93074.44
2022-11-29T19:08:01.888Z,92954.75
2022-11-29T19:13:04.608Z,92898.88
2022-11-29T19:18:08.634Z,92847.03
2022-11-29T19:23:11.281Z,92882.13
2022-11-29T19:28:14.542Z,92833.09
2022-11-29T19:33:18.697Z,92842.84
2022-11-29T19:38:21.380Z,92865.69
2022-11-29T19:43:24.237Z,92919.06
2022-11-29T19:48:28.268Z,92955.06
2022-11-29T19:53:31.136Z,92997.78
2022-11-29T19:58:34.156Z,93066.56
2022-11-29T20:03:38.448Z,93023.75
2022-11-29T20:08:41.756Z,93046.47
2022-11-29T20:13:46.318Z,93089.50
2022-11-29T20:18:51.523Z,93106.88
2022-11-29T20:23:57.104Z,93127.09
2022-11-29T20:28:59.919Z,93138.50
2022-11-29T20:34:04.259Z,93228.88
2022-11-29T20:39:15.150Z,93281.41
2022-11-29T20:44:21.526Z,93299.53
2022-11-29T20:49:26.225Z,93317.31
2022-11-29T20:54:29.524Z,93221.13
2022-11-29T20:59:32.287Z,93184.59
2022-11-29T21:04:36.336Z,93145.53
2022-11-29T21:09:39.244Z,93112.47
2022-11-29T21:14:42.936Z,93080.38
2022-11-29T21:19:47.744Z,93062.19
2022-11-29T21:24:58.087Z,93051.59
2022-11-29T21:30:03.208Z,92997.97
2022-11-29T21:35:08.491Z,92978.91
2022-11-29T21:40:12.142Z,92982.56
2022-11-29T21:45:16.056Z,93035.38
2022-11-29T21:50:20.414Z,93017.59
2022-11-29T21:55:23.150Z,93021.16
2022-11-29T22:00:26.059Z,92980.84
2022-11-29T22:05:30.587Z,92965.38
2022-11-29T22:10:33.455Z,92932.19
2022-11-29T22:15:36.146Z,92853.19
2022-11-29T22:20:40.172Z,92756.19
2022-11-29T22:25:42.923Z,92710.75
2022-11-29T22:30:45.613Z,92704.28
2022-11-29T22:35:49.696Z,92652.56
2022-11-29T22:40:52.736Z,92591.56
2022-11-29T22:45:55.785Z,92545.41
2022-11-29T22:51:05.075Z,92458.72
2022-11-29T22:56:09.729Z,92379.03
2022-11-29T23:01:13.946Z,92292.59
2022-11-29T23:06:20.216Z,92230.41
2022-11-29T23:11:26.115Z,92288.78
2022-11-29T23:16:30.855Z,92144.44
2022-11-29T23:21:36.826Z,92084.13
2022-11-29T23:26:41.094Z,92085.16
2022-11-29T23:31:44.203Z,92064.84
2022-11-29T23:36:52.580Z,92103.88
2022-11-29T23:41:55.758Z,92131.56
2022-11-29T23:46:58.467Z,92144.75
2022-11-29T23:52:02.676Z,92220.75
2022-11-29T23:57:05.528Z,92233.97
